sensor_id;sensor_type;location;lat;lon;timestamp;pressure;altitude;pressure_sealevel;temperature;humidity
55604;BME280;41468;48.838;9.330;2023-01-15T00:00:19;97167.88;;;11.30;80.22
55604;BME280;41468;48.838;9.330;2023-01-15T00:02:59;97159.72;;;11.26;80.96
55604;BME280;41468;48.838;9.330;2023-01-15T00:05:26;97159.31;;;11.28;81.00
55604;BME280;41468;48.838;9.330;2023-01-15T00:07:53;97162.44;;;11.26;80.98
55604;BME280;41468;48.838;9.330;2023-01-15T00:10:20;97156.59;;;11.24;81.40
55604;BME280;41468;48.838;9.330;2023-01-15T00:12:46;97141.41;;;11.23;81.43
55604;BME280;41468;48.838;9.330;2023-01-15T00:15:18;97150.41;;;11.20;81.42
55604;BME280;41468;48.838;9.330;2023-01-15T00:17:44;97142.16;;;11.24;81.90
55604;BME280;41468;48.838;9.330;2023-01-15T00:20:11;97138.66;;;11.23;82.44
55604;BME280;41468;48.838;9.330;2023-01-15T00:22:38;97140.19;;;11.28;82.84
55604;BME280;41468;48.838;9.330;2023-01-15T00:25:06;97139.03;;;11.25;83.75
55604;BME280;41468;48.838;9.330;2023-01-15T00:27:51;97119.16;;;11.21;83.26
55604;BME280;41468;48.838;9.330;2023-01-15T00:30:18;97130.09;;;11.21;83.01
55604;BME280;41468;48.838;9.330;2023-01-15T00:32:57;97134.38;;;11.19;82.99
55604;BME280;41468;48.838;9.330;2023-01-15T00:35:24;97122.66;;;11.22;82.99
55604;BME280;41468;48.838;9.330;2023-01-15T00:37:51;97133.59;;;11.22;82.75
55604;BME280;41468;48.838;9.330;2023-01-15T00:40:22;97126.59;;;11.21;82.80
55604;BME280;41468;48.838;9.330;2023-01-15T00:42:48;97116.38;;;11.25;82.77
55604;BME280;41468;48.838;9.330;2023-01-15T00:45:20;97109.34;;;11.31;81.78
55604;BME280;41468;48.838;9.330;2023-01-15T00:47:47;97101.56;;;11.26;82.37
55604;BME280;41468;48.838;9.330;2023-01-15T00:50:15;97094.53;;;11.28;81.99
55604;BME280;41468;48.838;9.330;2023-01-15T00:52:42;97099.56;;;11.30;82.18
55604;BME280;41468;48.838;9.330;2023-01-15T00:55:09;97096.44;;;11.32;81.30
55604;BME280;41468;48.838;9.330;2023-01-15T00:57:35;97089.44;;;11.27;81.77
55604;BME280;41468;48.838;9.330;2023-01-15T01:00:03;97091.38;;;11.30;81.58
55604;BME280;41468;48.838;9.330;2023-01-15T01:02:30;97081.59;;;11.33;81.02
55604;BME280;41468;48.838;9.330;2023-01-15T01:04:57;97072.66;;;11.28;81.19
55604;BME280;41468;48.838;9.330;2023-01-15T01:07:23;97066.41;;;11.32;81.04
55604;BME280;41468;48.838;9.330;2023-01-15T01:09:50;97066.34;;;11.35;80.59
55604;BME280;41468;48.838;9.330;2023-01-15T01:12:17;97062.44;;;11.36;80.06
55604;BME280;41468;48.838;9.330;2023-01-15T01:14:43;97061.22;;;11.41;79.86
55604;BME280;41468;48.838;9.330;2023-01-15T01:17:10;97065.53;;;11.38;79.77
55604;BME280;41468;48.838;9.330;2023-01-15T01:19:37;97061.28;;;11.37;79.63
55604;BME280;41468;48.838;9.330;2023-01-15T01:22:04;97057.72;;;11.40;79.52
55604;BME280;41468;48.838;9.330;2023-01-15T01:24:31;97058.81;;;11.50;78.80
55604;BME280;41468;48.838;9.330;2023-01-15T01:26:57;97063.47;;;11.53;78.49
55604;BME280;41468;48.838;9.330;2023-01-15T01:29:24;97063.06;;;11.55;78.17
55604;BME280;41468;48.838;9.330;2023-01-15T01:31:51;97054.84;;;11.55;77.94
55604;BME280;41468;48.838;9.330;2023-01-15T01:34:17;97054.81;;;11.62;77.69
55604;BME280;41468;48.838;9.330;2023-01-15T01:36:44;97054.44;;;11.60;78.13
55604;BME280;41468;48.838;9.330;2023-01-15T01:39:16;97052.88;;;11.59;77.97
55604;BME280;41468;48.838;9.330;2023-01-15T01:41:44;97060.66;;;11.60;78.08
55604;BME280;41468;48.838;9.330;2023-01-15T01:47:02;97055.53;;;11.69;78.33
55604;BME280;41468;48.838;9.330;2023-01-15T01:49:30;97039.13;;;11.66;78.17
55604;BME280;41468;48.838;9.330;2023-01-15T01:54:59;97046.59;;;11.62;78.66
55604;BME280;41468;48.838;9.330;2023-01-15T01:57:27;97032.94;;;11.62;78.94
55604;BME280;41468;48.838;9.330;2023-01-15T01:59:56;97032.16;;;11.61;79.09
55604;BME280;41468;48.838;9.330;2023-01-15T02:02:23;97018.50;;;11.58;79.37
55604;BME280;41468;48.838;9.330;2023-01-15T02:04:54;97027.91;;;11.57;79.58
55604;BME280;41468;48.838;9.330;2023-01-15T02:07:21;97013.44;;;11.60;79.73
55604;BME280;41468;48.838;9.330;2023-01-15T02:09:48;97005.97;;;11.64;79.98
55604;BME280;41468;48.838;9.330;2023-01-15T02:12:25;97016.91;;;11.64;80.29
55604;BME280;41468;48.838;9.330;2023-01-15T02:17:48;97002.50;;;11.60;80.55
55604;BME280;41468;48.838;9.330;2023-01-15T02:20:38;96995.84;;;11.61;80.76
55604;BME280;41468;48.838;9.330;2023-01-15T02:23:28;96994.22;;;11.67;80.99
55604;BME280;41468;48.838;9.330;2023-01-15T02:28:54;96986.84;;;11.64;81.35
55604;BME280;41468;48.838;9.330;2023-01-15T02:31:33;96991.88;;;11.65;81.39
55604;BME280;41468;48.838;9.330;2023-01-15T02:34:12;96987.19;;;11.66;81.35
55604;BME280;41468;48.838;9.330;2023-01-15T02:37:00;96978.63;;;11.64;81.58
55604;BME280;41468;48.838;9.330;2023-01-15T02:39:28;96972.75;;;11.65;81.68
55604;BME280;41468;48.838;9.330;2023-01-15T02:42:08;96976.25;;;11.66;81.88
55604;BME280;41468;48.838;9.330;2023-01-15T02:44:42;96977.00;;;11.70;81.73
55604;BME280;41468;48.838;9.330;2023-01-15T02:47:12;96984.06;;;11.67;81.78
55604;BME280;41468;48.838;9.330;2023-01-15T02:49:39;96982.09;;;11.68;81.82
55604;BME280;41468;48.838;9.330;2023-01-15T02:52:27;96985.66;;;11.65;81.89
55604;BME280;41468;48.838;9.330;2023-01-15T02:55:00;96988.44;;;11.61;82.13
55604;BME280;41468;48.838;9.330;2023-01-15T02:57:31;96984.09;;;11.64;82.43
55604;BME280;41468;48.838;9.330;2023-01-15T03:00:03;96977.50;;;11.61;82.75
55604;BME280;41468;48.838;9.330;2023-01-15T03:02:37;96979.34;;;11.71;82.32
55604;BME280;41468;48.838;9.330;2023-01-15T03:05:11;96968.84;;;11.66;83.33
55604;BME280;41468;48.838;9.330;2023-01-15T03:07:46;96980.19;;;11.65;84.02
55604;BME280;41468;48.838;9.330;2023-01-15T03:10:13;96969.28;;;11.61;84.50
55604;BME280;41468;48.838;9.330;2023-01-15T03:12:49;96969.31;;;11.58;84.78
55604;BME280;41468;48.838;9.330;2023-01-15T03:15:40;96960.66;;;11.63;84.71
55604;BME280;41468;48.838;9.330;2023-01-15T03:18:28;96955.63;;;11.58;85.72
55604;BME280;41468;48.838;9.330;2023-01-15T03:21:07;96950.66;;;11.53;87.19
55604;BME280;41468;48.838;9.330;2023-01-15T03:23:37;96952.56;;;11.52;87.06
55604;BME280;41468;48.838;9.330;2023-01-15T03:26:05;96947.53;;;11.50;86.89
55604;BME280;41468;48.838;9.330;2023-01-15T03:28:34;96944.38;;;11.52;87.05
55604;BME280;41468;48.838;9.330;2023-01-15T03:31:01;96937.41;;;11.47;87.49
55604;BME280;41468;48.838;9.330;2023-01-15T03:33:33;96940.88;;;11.52;87.05
55604;BME280;41468;48.838;9.330;2023-01-15T03:36:00;96935.41;;;11.52;87.07
55604;BME280;41468;48.838;9.330;2023-01-15T03:38:30;96938.16;;;11.52;86.70
55604;BME280;41468;48.838;9.330;2023-01-15T03:55:36;96929.91;;;11.55;86.20
55604;BME280;41468;48.838;9.330;2023-01-15T04:00:49;96914.63;;;11.58;85.93
55604;BME280;41468;48.838;9.330;2023-01-15T04:03:19;96912.28;;;11.60;85.65
55604;BME280;41468;48.838;9.330;2023-01-15T04:05:49;96916.59;;;11.61;85.74
55604;BME280;41468;48.838;9.330;2023-01-15T04:08:17;96916.16;;;11.62;85.77
55604;BME280;41468;48.838;9.330;2023-01-15T04:10:58;96909.91;;;11.62;85.83
55604;BME280;41468;48.838;9.330;2023-01-15T04:13:26;96904.81;;;11.64;85.54
55604;BME280;41468;48.838;9.330;2023-01-15T04:15:56;96891.94;;;11.64;85.43
55604;BME280;41468;48.838;9.330;2023-01-15T04:18:23;96895.81;;;11.67;85.55
55604;BME280;41468;48.838;9.330;2023-01-15T04:20:50;96895.84;;;11.63;86.02
55604;BME280;41468;48.838;9.330;2023-01-15T04:23:16;96897.78;;;11.63;86.06
55604;BME280;41468;48.838;9.330;2023-01-15T04:25:43;96893.56;;;11.58;86.30
55604;BME280;41468;48.838;9.330;2023-01-15T04:28:10;96893.91;;;11.60;86.49
55604;BME280;41468;48.838;9.330;2023-01-15T04:30:38;96882.91;;;11.67;85.95
55604;BME280;41468;48.838;9.330;2023-01-15T04:33:05;96885.69;;;11.64;86.01
55604;BME280;41468;48.838;9.330;2023-01-15T04:35:31;96878.63;;;11.66;85.85
55604;BME280;41468;48.838;9.330;2023-01-15T04:37:59;96875.53;;;11.64;86.29
55604;BME280;41468;48.838;9.330;2023-01-15T04:40:26;96882.19;;;11.63;86.29
55604;BME280;41468;48.838;9.330;2023-01-15T04:43:22;96876.28;;;11.65;86.09
55604;BME280;41468;48.838;9.330;2023-01-15T04:46:07;96876.38;;;11.58;86.61
55604;BME280;41468;48.838;9.330;2023-01-15T04:48:34;96871.66;;;11.62;86.60
55604;BME280;41468;48.838;9.330;2023-01-15T04:51:02;96868.47;;;11.67;86.08
55604;BME280;41468;48.838;9.330;2023-01-15T04:53:29;96875.16;;;11.62;86.65
55604;BME280;41468;48.838;9.330;2023-01-15T04:56:03;96879.44;;;11.63;86.43
55604;BME280;41468;48.838;9.330;2023-01-15T04:58:35;96865.34;;;11.65;86.53
55604;BME280;41468;48.838;9.330;2023-01-15T05:01:02;96871.66;;;11.62;86.57
55604;BME280;41468;48.838;9.330;2023-01-15T05:03:35;96872.38;;;11.66;86.96
55604;BME280;41468;48.838;9.330;2023-01-15T05:06:02;96859.84;;;11.68;86.29
55604;BME280;41468;48.838;9.330;2023-01-15T05:08:29;96864.66;;;11.61;86.35
55604;BME280;41468;48.838;9.330;2023-01-15T05:11:00;96859.94;;;11.61;87.01
55604;BME280;41468;48.838;9.330;2023-01-15T05:13:28;96863.00;;;11.67;86.52
55604;BME280;41468;48.838;9.330;2023-01-15T05:15:55;96870.81;;;11.65;86.36
55604;BME280;41468;48.838;9.330;2023-01-15T05:18:22;96881.75;;;11.65;86.55
55604;BME280;41468;48.838;9.330;2023-01-15T05:20:48;96887.59;;;11.67;87.50
55604;BME280;41468;48.838;9.330;2023-01-15T05:23:16;96906.78;;;11.63;88.45
55604;BME280;41468;48.838;9.330;2023-01-15T05:25:43;96959.13;;;11.62;91.27
55604;BME280;41468;48.838;9.330;2023-01-15T05:28:09;96959.25;;;11.10;97.00
55604;BME280;41468;48.838;9.330;2023-01-15T05:30:36;96973.50;;;10.79;100.00
55604;BME280;41468;48.838;9.330;2023-01-15T05:33:02;96957.75;;;10.49;100.00
55604;BME280;41468;48.838;9.330;2023-01-15T05:35:29;96976.13;;;10.38;100.00
55604;BME280;41468;48.838;9.330;2023-01-15T05:37:56;96999.56;;;10.17;100.00
55604;BME280;41468;48.838;9.330;2023-01-15T05:40:22;96985.25;;;9.95;100.00
55604;BME280;41468;48.838;9.330;2023-01-15T05:42:49;96984.88;;;9.90;100.00
55604;BME280;41468;48.838;9.330;2023-01-15T05:45:15;96990.75;;;9.85;100.00
55604;BME280;41468;48.838;9.330;2023-01-15T05:47:42;96998.19;;;9.66;100.00
55604;BME280;41468;48.838;9.330;2023-01-15T05:50:09;97000.94;;;9.59;100.00
55604;BME280;41468;48.838;9.330;2023-01-15T05:52:36;96987.34;;;9.45;100.00
55604;BME280;41468;48.838;9.330;2023-01-15T05:55:03;96990.06;;;9.45;100.00
55604;BME280;41468;48.838;9.330;2023-01-15T05:57:34;96999.44;;;9.40;100.00
55604;BME280;41468;48.838;9.330;2023-01-15T06:00:02;97004.91;;;9.29;100.00
55604;BME280;41468;48.838;9.330;2023-01-15T06:02:40;97011.88;;;9.23;100.00
55604;BME280;41468;48.838;9.330;2023-01-15T06:05:07;97018.09;;;9.13;100.00
55604;BME280;41468;48.838;9.330;2023-01-15T06:07:34;97016.16;;;9.06;100.00
55604;BME280;41468;48.838;9.330;2023-01-15T06:10:00;97030.56;;;9.07;100.00
55604;BME280;41468;48.838;9.330;2023-01-15T06:12:27;97028.59;;;9.18;100.00
55604;BME280;41468;48.838;9.330;2023-01-15T06:14:53;97034.06;;;9.04;100.00
55604;BME280;41468;48.838;9.330;2023-01-15T06:17:20;97029.41;;;9.12;100.00
55604;BME280;41468;48.838;9.330;2023-01-15T06:19:47;97036.00;;;9.07;100.00
55604;BME280;41468;48.838;9.330;2023-01-15T06:22:13;97038.72;;;9.07;100.00
55604;BME280;41468;48.838;9.330;2023-01-15T06:24:40;97046.13;;;9.03;100.00
55604;BME280;41468;48.838;9.330;2023-01-15T06:27:06;97056.63;;;8.97;100.00
55604;BME280;41468;48.838;9.330;2023-01-15T06:29:33;97063.22;;;9.03;100.00
55604;BME280;41468;48.838;9.330;2023-01-15T06:31:59;97057.00;;;8.96;100.00
55604;BME280;41468;48.838;9.330;2023-01-15T06:34:26;97065.56;;;9.05;100.00
55604;BME280;41468;48.838;9.330;2023-01-15T06:36:53;97067.50;;;9.01;100.00
55604;BME280;41468;48.838;9.330;2023-01-15T06:39:24;97070.59;;;8.89;100.00
55604;BME280;41468;48.838;9.330;2023-01-15T06:41:51;97072.53;;;8.84;100.00
55604;BME280;41468;48.838;9.330;2023-01-15T06:44:36;97090.00;;;8.66;100.00
55604;BME280;41468;48.838;9.330;2023-01-15T06:47:33;97094.25;;;8.70;100.00
55604;BME280;41468;48.838;9.330;2023-01-15T06:49:59;97100.88;;;8.66;100.00
55604;BME280;41468;48.838;9.330;2023-01-15T06:52:27;97113.66;;;8.54;100.00
55604;BME280;41468;48.838;9.330;2023-01-15T06:54:54;97122.94;;;8.43;100.00
55604;BME280;41468;48.838;9.330;2023-01-15T06:57:25;97119.75;;;8.33;100.00
55604;BME280;41468;48.838;9.330;2023-01-15T06:59:52;97134.47;;;8.25;100.00
55604;BME280;41468;48.838;9.330;2023-01-15T07:02:18;97142.53;;;8.11;100.00
55604;BME280;41468;48.838;9.330;2023-01-15T07:04:51;97139.81;;;8.07;100.00
55604;BME280;41468;48.838;9.330;2023-01-15T07:07:19;97144.94;;;8.23;100.00
55604;BME280;41468;48.838;9.330;2023-01-15T07:09:46;97161.84;;;7.95;100.00
55604;BME280;41468;48.838;9.330;2023-01-15T07:12:13;97172.34;;;7.93;100.00
55604;BME280;41468;48.838;9.330;2023-01-15T07:14:40;97183.94;;;7.86;100.00
55604;BME280;41468;48.838;9.330;2023-01-15T07:17:06;97179.06;;;7.58;100.00
55604;BME280;41468;48.838;9.330;2023-01-15T07:19:34;97189.06;;;7.50;100.00
55604;BME280;41468;48.838;9.330;2023-01-15T07:22:01;97213.94;;;7.52;100.00
55604;BME280;41468;48.838;9.330;2023-01-15T07:24:27;97213.53;;;7.50;100.00
55604;BME280;41468;48.838;9.330;2023-01-15T07:26:54;97214.56;;;7.39;100.00
55604;BME280;41468;48.838;9.330;2023-01-15T07:29:21;97223.44;;;7.36;100.00
55604;BME280;41468;48.838;9.330;2023-01-15T07:31:49;97218.84;;;7.40;100.00
55604;BME280;41468;48.838;9.330;2023-01-15T07:34:16;97222.66;;;7.35;100.00
55604;BME280;41468;48.838;9.330;2023-01-15T07:36:42;97231.59;;;7.36;100.00
55604;BME280;41468;48.838;9.330;2023-01-15T07:39:10;97240.13;;;7.34;100.00
55604;BME280;41468;48.838;9.330;2023-01-15T07:41:37;97235.03;;;7.29;100.00
55604;BME280;41468;48.838;9.330;2023-01-15T07:44:22;97233.06;;;7.26;100.00
55604;BME280;41468;48.838;9.330;2023-01-15T07:47:17;97235.28;;;7.17;100.00
55604;BME280;41468;48.838;9.330;2023-01-15T07:50:17;97237.66;;;7.22;100.00
55604;BME280;41468;48.838;9.330;2023-01-15T07:52:45;97232.88;;;7.12;99.64
55604;BME280;41468;48.838;9.330;2023-01-15T07:55:12;97226.66;;;7.07;100.00
55604;BME280;41468;48.838;9.330;2023-01-15T07:57:40;97237.19;;;7.13;100.00
55604;BME280;41468;48.838;9.330;2023-01-15T08:00:13;97251.06;;;7.07;99.01
55604;BME280;41468;48.838;9.330;2023-01-15T08:02:40;97266.19;;;7.08;99.26
55604;BME280;41468;48.838;9.330;2023-01-15T08:05:08;97269.69;;;7.09;99.56
55604;BME280;41468;48.838;9.330;2023-01-15T08:07:45;97277.91;;;7.13;98.57
55604;BME280;41468;48.838;9.330;2023-01-15T08:10:13;97280.94;;;7.07;98.48
55604;BME280;41468;48.838;9.330;2023-01-15T08:12:40;97279.13;;;7.19;99.00
55604;BME280;41468;48.838;9.330;2023-01-15T08:15:28;97279.84;;;7.12;99.58
55604;BME280;41468;48.838;9.330;2023-01-15T08:17:57;97293.78;;;7.14;99.66
55604;BME280;41468;48.838;9.330;2023-01-15T08:20:25;97289.53;;;7.13;99.34
55604;BME280;41468;48.838;9.330;2023-01-15T08:22:52;97285.38;;;7.23;99.56
55604;BME280;41468;48.838;9.330;2023-01-15T08:25:21;97302.44;;;7.23;100.00
55604;BME280;41468;48.838;9.330;2023-01-15T08:27:49;97297.44;;;7.25;99.87
55604;BME280;41468;48.838;9.330;2023-01-15T08:30:18;97299.28;;;7.18;99.97
55604;BME280;41468;48.838;9.330;2023-01-15T08:32:45;97304.66;;;7.14;100.00
55604;BME280;41468;48.838;9.330;2023-01-15T08:35:12;97297.66;;;7.13;100.00
55604;BME280;41468;48.838;9.330;2023-01-15T08:37:40;97304.53;;;7.03;100.00
55604;BME280;41468;48.838;9.330;2023-01-15T08:40:08;97323.94;;;7.05;100.00
55604;BME280;41468;48.838;9.330;2023-01-15T08:42:35;97322.41;;;7.08;100.00
55604;BME280;41468;48.838;9.330;2023-01-15T08:45:02;97320.06;;;7.06;100.00
55604;BME280;41468;48.838;9.330;2023-01-15T08:47:28;97323.19;;;7.08;100.00
55604;BME280;41468;48.838;9.330;2023-01-15T08:49:57;97335.53;;;7.02;100.00
55604;BME280;41468;48.838;9.330;2023-01-15T08:52:24;97347.50;;;6.98;100.00
55604;BME280;41468;48.838;9.330;2023-01-15T08:54:56;97364.16;;;6.96;100.00
55604;BME280;41468;48.838;9.330;2023-01-15T08:57:23;97366.88;;;6.96;100.00
55604;BME280;41468;48.838;9.330;2023-01-15T08:59:49;97372.06;;;7.08;100.00
55604;BME280;41468;48.838;9.330;2023-01-15T09:02:16;97378.25;;;7.09;100.00
55604;BME280;41468;48.838;9.330;2023-01-15T09:04:43;97384.81;;;7.04;100.00
55604;BME280;41468;48.838;9.330;2023-01-15T09:07:14;97384.44;;;7.06;100.00
55604;BME280;41468;48.838;9.330;2023-01-15T09:09:42;97385.00;;;6.92;99.16
55604;BME280;41468;48.838;9.330;2023-01-15T09:12:08;97391.59;;;6.91;99.31
55604;BME280;41468;48.838;9.330;2023-01-15T09:14:35;97380.63;;;6.84;100.00
55604;BME280;41468;48.838;9.330;2023-01-15T09:17:22;97390.75;;;6.87;100.00
55604;BME280;41468;48.838;9.330;2023-01-15T09:19:48;97401.28;;;6.92;100.00
55604;BME280;41468;48.838;9.330;2023-01-15T09:22:15;97392.88;;;6.74;99.75
55604;BME280;41468;48.838;9.330;2023-01-15T09:24:41;97397.19;;;6.75;100.00
55604;BME280;41468;48.838;9.330;2023-01-15T09:27:15;97405.94;;;6.65;99.55
55604;BME280;41468;48.838;9.330;2023-01-15T09:29:42;97412.50;;;6.64;100.00
55604;BME280;41468;48.838;9.330;2023-01-15T09:32:08;97422.88;;;6.58;98.51
55604;BME280;41468;48.838;9.330;2023-01-15T09:34:35;97425.59;;;6.58;99.90
55604;BME280;41468;48.838;9.330;2023-01-15T09:37:02;97436.84;;;6.60;98.23
55604;BME280;41468;48.838;9.330;2023-01-15T09:39:29;97436.50;;;6.62;99.01
55604;BME280;41468;48.838;9.330;2023-01-15T09:53:42;97438.44;;;6.61;100.00
55604;BME280;41468;48.838;9.330;2023-01-15T09:56:23;97457.13;;;6.67;99.89
55604;BME280;41468;48.838;9.330;2023-01-15T09:58:51;97458.00;;;6.74;100.00
55604;BME280;41468;48.838;9.330;2023-01-15T10:01:30;97461.59;;;6.82;99.89
55604;BME280;41468;48.838;9.330;2023-01-15T10:04:15;97467.50;;;6.88;99.20
55604;BME280;41468;48.838;9.330;2023-01-15T10:06:59;97466.44;;;6.92;98.82
55604;BME280;41468;48.838;9.330;2023-01-15T10:09:33;97477.34;;;6.73;97.68
55604;BME280;41468;48.838;9.330;2023-01-15T10:12:11;97478.00;;;6.66;95.88
55604;BME280;41468;48.838;9.330;2023-01-15T10:17:57;97477.03;;;6.55;96.26
55604;BME280;41468;48.838;9.330;2023-01-15T10:26:20;97485.91;;;6.52;96.14
55604;BME280;41468;48.838;9.330;2023-01-15T10:40:50;97520.22;;;6.21;95.71
55604;BME280;41468;48.838;9.330;2023-01-15T10:43:27;97513.56;;;6.18;97.31
55604;BME280;41468;48.838;9.330;2023-01-15T10:46:02;97524.91;;;6.24;97.99
55604;BME280;41468;48.838;9.330;2023-01-15T10:48:39;97517.41;;;6.17;96.38
55604;BME280;41468;48.838;9.330;2023-01-15T10:51:22;97531.97;;;6.09;94.75
55604;BME280;41468;48.838;9.330;2023-01-15T10:59:09;97547.03;;;5.91;95.44
55604;BME280;41468;48.838;9.330;2023-01-15T11:01:38;97556.31;;;5.90;99.22
55604;BME280;41468;48.838;9.330;2023-01-15T11:04:08;97539.84;;;5.79;96.53
55604;BME280;41468;48.838;9.330;2023-01-15T11:06:35;97549.47;;;5.76;95.74
55604;BME280;41468;48.838;9.330;2023-01-15T11:09:02;97547.00;;;5.52;94.98
55604;BME280;41468;48.838;9.330;2023-01-15T11:11:45;97550.84;;;5.51;96.44
55604;BME280;41468;48.838;9.330;2023-01-15T11:14:39;97567.00;;;5.47;97.49
55604;BME280;41468;48.838;9.330;2023-01-15T11:17:35;97565.50;;;5.50;94.95
55604;BME280;41468;48.838;9.330;2023-01-15T11:22:54;97570.59;;;5.36;95.66
55604;BME280;41468;48.838;9.330;2023-01-15T11:25:27;97567.88;;;5.36;95.76
55604;BME280;41468;48.838;9.330;2023-01-15T11:27:57;97582.78;;;5.45;97.12
55604;BME280;41468;48.838;9.330;2023-01-15T11:30:36;97590.50;;;5.43;97.02
55604;BME280;41468;48.838;9.330;2023-01-15T11:33:24;97597.59;;;5.32;95.96
55604;BME280;41468;48.838;9.330;2023-01-15T11:35:59;97604.22;;;5.19;94.66
55604;BME280;41468;48.838;9.330;2023-01-15T11:38:45;97601.84;;;5.17;95.77
55604;BME280;41468;48.838;9.330;2023-01-15T11:43:53;97606.28;;;5.09;94.98
55604;BME280;41468;48.838;9.330;2023-01-15T11:46:39;97609.38;;;5.08;96.50
55604;BME280;41468;48.838;9.330;2023-01-15T11:49:24;97607.97;;;5.14;97.43
55604;BME280;41468;48.838;9.330;2023-01-15T11:52:19;97612.69;;;5.17;95.15
55604;BME280;41468;48.838;9.330;2023-01-15T11:54:51;97610.56;;;5.26;97.88
55604;BME280;41468;48.838;9.330;2023-01-15T11:57:26;97610.16;;;5.08;94.83
55604;BME280;41468;48.838;9.330;2023-01-15T11:59:54;97605.19;;;5.11;95.26
55604;BME280;41468;48.838;9.330;2023-01-15T12:02:31;97619.75;;;5.06;94.44
55604;BME280;41468;48.838;9.330;2023-01-15T12:05:02;97625.06;;;5.18;94.05
55604;BME280;41468;48.838;9.330;2023-01-15T12:07:37;97614.41;;;5.09;93.49
55604;BME280;41468;48.838;9.330;2023-01-15T12:10:20;97617.03;;;5.06;93.11
55604;BME280;41468;48.838;9.330;2023-01-15T12:15:42;97618.97;;;5.21;93.50
55604;BME280;41468;48.838;9.330;2023-01-15T12:18:27;97618.88;;;5.18;91.76
55604;BME280;41468;48.838;9.330;2023-01-15T12:23:57;97625.44;;;5.32;90.88
55604;BME280;41468;48.838;9.330;2023-01-15T12:26:32;97633.75;;;5.24;90.88
55604;BME280;41468;48.838;9.330;2023-01-15T12:29:23;97621.41;;;5.26;89.21
55604;BME280;41468;48.838;9.330;2023-01-15T12:31:58;97623.31;;;5.26;90.17
55604;BME280;41468;48.838;9.330;2023-01-15T12:37:06;97613.97;;;5.23;90.11
55604;BME280;41468;48.838;9.330;2023-01-15T12:42:15;97599.84;;;5.46;87.15
55604;BME280;41468;48.838;9.330;2023-01-15T12:45:07;97603.16;;;5.55;88.02
55604;BME280;41468;48.838;9.330;2023-01-15T12:47:57;97600.44;;;5.55;87.83
55604;BME280;41468;48.838;9.330;2023-01-15T12:50:40;97607.16;;;5.61;84.33
55604;BME280;41468;48.838;9.330;2023-01-15T12:56:16;97615.38;;;5.65;85.34
55604;BME280;41468;48.838;9.330;2023-01-15T12:59:15;97618.41;;;5.63;86.57
55604;BME280;41468;48.838;9.330;2023-01-15T13:02:09;97621.63;;;5.69;87.00
55604;BME280;41468;48.838;9.330;2023-01-15T13:04:51;97626.19;;;5.65;86.57
55604;BME280;41468;48.838;9.330;2023-01-15T13:07:26;97628.41;;;5.59;85.11
55604;BME280;41468;48.838;9.330;2023-01-15T13:10:27;97642.78;;;5.63;85.53
55604;BME280;41468;48.838;9.330;2023-01-15T13:13:00;97639.56;;;5.73;84.93
55604;BME280;41468;48.838;9.330;2023-01-15T13:15:32;97637.34;;;5.79;84.53
55604;BME280;41468;48.838;9.330;2023-01-15T13:18:25;97639.66;;;6.12;87.16
55604;BME280;41468;48.838;9.330;2023-01-15T13:20:59;97639.53;;;6.05;85.11
55604;BME280;41468;48.838;9.330;2023-01-15T13:34:28;97648.66;;;6.16;82.27
55604;BME280;41468;48.838;9.330;2023-01-15T13:39:48;97658.50;;;6.05;79.81
55604;BME280;41468;48.838;9.330;2023-01-15T13:42:19;97658.22;;;6.10;81.86
55604;BME280;41468;48.838;9.330;2023-01-15T13:47:34;97678.94;;;6.18;82.61
55604;BME280;41468;48.838;9.330;2023-01-15T13:50:06;97672.63;;;6.14;80.15
55604;BME280;41468;48.838;9.330;2023-01-15T13:52:39;97677.34;;;6.17;81.33
55604;BME280;41468;48.838;9.330;2023-01-15T13:55:32;97669.13;;;6.14;80.25
55604;BME280;41468;48.838;9.330;2023-01-15T13:57:59;97676.84;;;6.12;79.63
55604;BME280;41468;48.838;9.330;2023-01-15T14:00:33;97674.00;;;6.24;80.73
55604;BME280;41468;48.838;9.330;2023-01-15T14:03:26;97664.38;;;6.27;80.40
55604;BME280;41468;48.838;9.330;2023-01-15T14:05:58;97678.38;;;6.29;81.20
55604;BME280;41468;48.838;9.330;2023-01-15T14:08:36;97682.44;;;6.38;80.72
55604;BME280;41468;48.838;9.330;2023-01-15T14:11:03;97685.22;;;6.42;81.64
55604;BME280;41468;48.838;9.330;2023-01-15T14:13:54;97669.81;;;6.46;79.81
55604;BME280;41468;48.838;9.330;2023-01-15T14:22:50;97680.78;;;6.34;79.58
55604;BME280;41468;48.838;9.330;2023-01-15T14:35:55;97704.34;;;6.30;78.22
55604;BME280;41468;48.838;9.330;2023-01-15T14:38:25;97707.22;;;6.37;78.68
55604;BME280;41468;48.838;9.330;2023-01-15T14:41:01;97694.41;;;6.53;79.08
55604;BME280;41468;48.838;9.330;2023-01-15T14:43:32;97697.72;;;6.47;77.20
55604;BME280;41468;48.838;9.330;2023-01-15T14:46:30;97689.97;;;6.45;78.15
55604;BME280;41468;48.838;9.330;2023-01-15T14:49:03;97700.72;;;6.41;76.92
55604;BME280;41468;48.838;9.330;2023-01-15T14:51:32;97685.53;;;6.37;75.60
55604;BME280;41468;48.838;9.330;2023-01-15T14:54:02;97693.84;;;6.28;74.80
55604;BME280;41468;48.838;9.330;2023-01-15T14:56:36;97686.13;;;6.11;78.34
55604;BME280;41468;48.838;9.330;2023-01-15T14:59:19;97687.47;;;6.20;77.68
55604;BME280;41468;48.838;9.330;2023-01-15T15:01:57;97680.06;;;6.17;76.30
55604;BME280;41468;48.838;9.330;2023-01-15T15:04:38;97688.63;;;6.19;75.83
55604;BME280;41468;48.838;9.330;2023-01-15T15:07:13;97692.72;;;6.29;76.02
55604;BME280;41468;48.838;9.330;2023-01-15T15:09:58;97693.66;;;6.37;73.62
55604;BME280;41468;48.838;9.330;2023-01-15T15:12:40;97689.81;;;6.38;74.88
55604;BME280;41468;48.838;9.330;2023-01-15T15:15:18;97687.44;;;6.36;75.37
55604;BME280;41468;48.838;9.330;2023-01-15T15:23:27;97704.06;;;6.35;73.88
55604;BME280;41468;48.838;9.330;2023-01-15T15:25:59;97714.13;;;6.34;73.46
55604;BME280;41468;48.838;9.330;2023-01-15T15:28:27;97714.66;;;6.40;74.24
55604;BME280;41468;48.838;9.330;2023-01-15T15:30:54;97713.69;;;6.32;76.21
55604;BME280;41468;48.838;9.330;2023-01-15T15:33:34;97712.03;;;6.28;73.42
55604;BME280;41468;48.838;9.330;2023-01-15T15:36:09;97718.69;;;6.30;73.59